Aeroporto :
LOGIN :

Iscrizione | Disclaimer

   EN    FR    IT 

 










Sommario :    VFR   VFR Marginale   IFR   IFR Intensivo   IFR Molto Intensivo
Visibilità : 
Base nubi : 
>= 8 km
>= 3000ft
5 / 8 km
1000 / 3000 ft
1500m / 5 km
500 / 1000 ft
800 / 1500m
200 / 500 ft
< 800m
< 200 ft
Simboli :   Temporali  Nebbia  Neve Forte  Precipitazioni Forti  Vento > 20 kt
SIGMETs :   Varie  Temporali  Ghiacco  Turbolenza  Onda orograficha  Ceneri Vulcaniche






- Altitudine del aeroporto : 390 ft
- Codice IATA : NQY


EGHQ - Newquay

ULTIMO METAR :
  • 221220Z VRB03KT 9000 RA BKN028CB 07/05 Q0988

METARs OBSOLETI :
  • 221150Z 18007KT 9000 RA BKN035CB 08/04 Q0989
  • 221120Z VRB10KT 9999 -RA BKN014CB 09/07 Q0989
  • 221050Z 15012KT 9999 VCSH FEW019CB 09/07 Q0989
  • 221020Z 16010KT 9999 FEW034CB 09/07 Q0989
  • 220950Z 16008KT 9999 SCT024CB 08/06 Q0989
  • 220920Z 14010KT 9999 FEW021CB 07/06 Q0989

TAF TAF EGHQ
Valido dal 22 a 12 ore il 22 a 21 ore UTC


221104Z 2212/2221 15015KT 9999 SCT020
BECMG 2212/2215 09006KT
TEMPO 2212/2221 7000 SHRA RA
PROB30
TEMPO 2213/2221 4000 +SHRA +RA BKN012
BECMG 2215/2218 03010KT



MetMap, La meteo Aeronautica in un colpo d'occhio ! - Copyright ORBIFLY Dicembre 2007 - Disclaimer

ORBIFLY MET'MAP TEAM :

Programmazione e sviluppo : Alexandra Zaïnal
Concezione e sviluppo : Baudouin d'Aumeries
Co-Programmazione e sviluppo : Marc-Olivier Méhu
Supporto tecnico e logistico : Manuel Goepfert
Aiuto per la traduzione : Arnaldo La Scala

Contatto : metmap@orbifly.com




FONTI E CREDITI :

   NOAA